createdAt,value
2017-07-29T00:04:00.793Z,5.17
2017-07-29T00:09:04.040Z,5.33
2017-07-29T00:14:07.232Z,5.57
2017-07-29T00:19:10.433Z,5.07
2017-07-29T00:24:13.608Z,6.07
2017-07-29T00:29:16.802Z,5.13
2017-07-29T00:34:19.994Z,5.33
2017-07-29T00:39:23.943Z,5.80
2017-07-29T00:44:27.119Z,5.43
2017-07-29T00:49:31.070Z,4.93
2017-07-29T00:54:34.259Z,5.43
2017-07-29T00:59:37.471Z,6.20
2017-07-29T01:04:40.658Z,4.80
2017-07-29T01:09:44.644Z,5.63
2017-07-29T01:14:47.833Z,6.90
2017-07-29T01:19:51.031Z,5.50
2017-07-29T01:24:54.229Z,5.63
2017-07-29T01:29:57.447Z,5.03
2017-07-29T01:35:00.634Z,5.33
2017-07-29T01:40:04.582Z,5.90
2017-07-29T01:45:07.785Z,5.10
2017-07-29T01:50:10.947Z,6.10
2017-07-29T01:55:14.146Z,5.33
2017-07-29T02:00:17.364Z,6.00
2017-07-29T02:05:20.541Z,5.90
2017-07-29T02:10:23.718Z,6.27
2017-07-29T02:15:26.924Z,6.27
2017-07-29T02:20:30.117Z,6.57
2017-07-29T02:25:33.325Z,6.10
2017-07-29T02:30:36.505Z,5.90
2017-07-29T02:35:39.675Z,6.30
2017-07-29T02:40:42.847Z,6.50
2017-07-29T02:45:46.051Z,6.00
2017-07-29T02:50:49.989Z,6.23
2017-07-29T02:55:53.202Z,6.60
2017-07-29T03:00:56.401Z,6.70
2017-07-29T03:05:59.581Z,6.67
2017-07-29T03:11:03.522Z,5.87
2017-07-29T03:16:06.845Z,6.70
2017-07-29T03:21:10.057Z,6.90
2017-07-29T03:26:13.265Z,6.60
2017-07-29T03:31:16.441Z,6.13
2017-07-29T03:36:20.405Z,5.17
2017-07-29T03:41:23.577Z,6.47
2017-07-29T03:46:26.769Z,5.80
2017-07-29T03:51:29.945Z,6.73
2017-07-29T03:56:33.116Z,5.60
2017-07-29T04:01:36.398Z,6.40
2017-07-29T04:06:40.350Z,5.87
2017-07-29T04:11:43.497Z,6.00
2017-07-29T04:16:46.700Z,5.80
2017-07-29T04:21:49.896Z,6.17
2017-07-29T04:26:53.203Z,6.33
2017-07-29T04:31:56.401Z,5.80
2017-07-29T04:36:59.585Z,5.73
2017-07-29T04:42:02.778Z,5.77
2017-07-29T04:47:06.737Z,5.40
2017-07-29T04:52:10.000Z,5.90
2017-07-29T04:57:13.959Z,6.20
2017-07-29T05:02:17.165Z,5.87
2017-07-29T05:07:20.360Z,5.90
2017-07-29T05:12:23.524Z,6.20
2017-07-29T05:17:26.718Z,6.37
2017-07-29T05:22:29.920Z,5.27
2017-07-29T05:27:33.112Z,6.63
2017-07-29T05:32:36.332Z,5.83
2017-07-29T05:37:39.550Z,6.10
2017-07-29T05:42:42.749Z,5.80
2017-07-29T05:47:45.933Z,5.93
2017-07-29T05:52:49.147Z,6.30
2017-07-29T05:57:52.350Z,6.53
2017-07-29T06:02:55.550Z,6.93
2017-07-29T06:07:58.751Z,6.80
2017-07-29T06:13:01.996Z,7.20
2017-07-29T06:18:05.184Z,6.03
2017-07-29T06:23:08.375Z,6.43
2017-07-29T06:28:11.542Z,6.40
2017-07-29T06:33:15.516Z,6.43
2017-07-29T06:38:18.707Z,5.90
2017-07-29T06:43:21.918Z,6.50
2017-07-29T06:48:25.252Z,5.67
2017-07-29T06:53:28.579Z,6.43
2017-07-29T06:58:31.766Z,5.87
2017-07-29T07:03:35.210Z,5.73
2017-07-29T07:08:38.453Z,5.80
2017-07-29T07:13:42.398Z,6.27
2017-07-29T07:18:45.593Z,5.53
2017-07-29T07:23:48.805Z,6.03
2017-07-29T07:28:52.018Z,5.87
2017-07-29T07:33:55.226Z,5.13
2017-07-29T07:38:58.433Z,5.10
2017-07-29T07:44:01.640Z,4.77
2017-07-29T07:49:04.815Z,4.77
2017-07-29T07:54:08.783Z,4.20
2017-07-29T07:59:12.066Z,4.80
2017-07-29T08:04:15.271Z,4.03
2017-07-29T08:09:18.475Z,4.50
2017-07-29T08:14:21.668Z,4.27
2017-07-29T08:19:25.649Z,4.53
2017-07-29T08:24:28.876Z,4.60
2017-07-29T08:29:32.023Z,4.97
2017-07-29T08:34:35.244Z,4.53
2017-07-29T08:39:38.442Z,4.80
2017-07-29T08:44:41.803Z,4.20
2017-07-29T08:49:45.128Z,4.40
2017-07-29T08:54:48.311Z,4.80
2017-07-29T08:59:51.566Z,4.20
2017-07-29T09:04:55.516Z,4.03
2017-07-29T09:09:58.751Z,6.23
2017-07-29T09:15:01.917Z,5.00
2017-07-29T09:20:05.116Z,3.70
2017-07-29T09:25:08.328Z,3.90
2017-07-29T09:30:11.517Z,3.60
2017-07-29T09:35:14.711Z,3.97
2017-07-29T09:40:17.917Z,5.57
2017-07-29T09:45:21.099Z,3.77
2017-07-29T09:50:24.287Z,3.60
2017-07-29T09:55:27.495Z,3.90
2017-07-29T10:00:30.720Z,4.47
2017-07-29T10:05:33.971Z,3.87
2017-07-29T10:10:37.937Z,3.83
2017-07-29T10:15:41.264Z,3.07
2017-07-29T10:20:44.584Z,2.90
2017-07-29T10:25:47.729Z,3.43
2017-07-29T10:30:50.946Z,3.57
2017-07-29T10:35:54.134Z,2.50
2017-07-29T10:40:57.336Z,3.30
2017-07-29T10:46:01.290Z,3.70
2017-07-29T10:51:04.493Z,3.00
2017-07-29T10:56:07.685Z,2.77
2017-07-29T11:01:10.912Z,5.07
2017-07-29T11:06:14.138Z,3.00
2017-07-29T11:11:17.337Z,3.07
2017-07-29T11:16:20.544Z,3.43
2017-07-29T11:21:23.741Z,4.60
2017-07-29T11:26:26.954Z,4.03
2017-07-29T11:31:30.291Z,3.20
2017-07-29T11:36:33.623Z,3.13
2017-07-29T11:41:37.601Z,3.20
2017-07-29T11:46:40.925Z,3.70
2017-07-29T11:51:44.182Z,2.80
2017-07-29T11:56:48.141Z,2.50
2017-07-29T12:01:51.332Z,2.70
2017-07-29T12:06:54.513Z,2.27
2017-07-29T12:11:58.521Z,2.50
2017-07-29T12:17:01.733Z,2.40
2017-07-29T12:22:05.703Z,2.20
2017-07-29T12:27:08.879Z,2.63
2017-07-29T12:32:12.891Z,3.70
2017-07-29T12:37:16.045Z,2.90
2017-07-29T12:42:19.281Z,2.80
2017-07-29T12:47:22.484Z,2.60
2017-07-29T12:52:25.685Z,3.10
2017-07-29T12:57:29.118Z,2.30
2017-07-29T13:02:32.312Z,2.87
2017-07-29T13:07:35.520Z,4.23
2017-07-29T13:12:38.726Z,2.60
2017-07-29T13:17:41.931Z,2.37
2017-07-29T13:22:45.098Z,1.97
2017-07-29T13:27:48.327Z,2.30
2017-07-29T13:32:51.530Z,2.33
2017-07-29T13:37:54.864Z,2.50
2017-07-29T13:42:58.046Z,1.80
2017-07-29T13:48:01.219Z,2.10
2017-07-29T13:53:04.420Z,2.50
2017-07-29T13:58:07.648Z,2.47
2017-07-29T14:03:10.858Z,2.20
2017-07-29T14:08:14.044Z,1.73
2017-07-29T14:13:17.995Z,2.53
2017-07-29T14:18:21.186Z,2.80
2017-07-29T14:23:24.385Z,2.57
2017-07-29T14:28:27.596Z,7.00
2017-07-29T14:33:30.806Z,3.37
2017-07-29T14:38:33.996Z,3.10
2017-07-29T14:43:37.984Z,3.30
2017-07-29T14:48:41.202Z,2.87
2017-07-29T14:53:44.369Z,2.83
2017-07-29T14:58:47.578Z,2.47
2017-07-29T15:03:50.800Z,2.43
2017-07-29T15:08:53.998Z,2.80
2017-07-29T15:13:57.174Z,2.60
2017-07-29T15:19:00.395Z,3.13
2017-07-29T15:24:03.589Z,2.70
2017-07-29T15:29:06.795Z,2.77
2017-07-29T15:34:10.034Z,2.30
2017-07-29T15:39:13.234Z,3.40
2017-07-29T15:44:16.431Z,3.10
2017-07-29T15:49:19.582Z,2.70
2017-07-29T15:54:22.763Z,2.70
2017-07-29T15:59:25.948Z,2.50
2017-07-29T16:04:29.233Z,2.40
2017-07-29T16:09:33.432Z,2.33
2017-07-29T16:14:36.630Z,2.67
2017-07-29T16:19:39.855Z,2.20
2017-07-29T16:24:43.058Z,2.10
2017-07-29T16:29:47.044Z,2.50
2017-07-29T16:34:50.224Z,3.10
2017-07-29T16:39:53.421Z,2.93
2017-07-29T16:44:57.390Z,2.83
2017-07-29T16:50:00.543Z,3.00
2017-07-29T16:55:04.531Z,2.97
2017-07-29T17:00:07.768Z,2.50
2017-07-29T17:05:11.733Z,2.70
2017-07-29T17:10:14.918Z,2.53
2017-07-29T17:15:18.137Z,3.13
2017-07-29T17:20:22.162Z,3.13
2017-07-29T17:25:25.351Z,3.87
2017-07-29T17:30:29.433Z,3.40
2017-07-29T17:35:32.648Z,3.27
2017-07-29T17:40:35.846Z,4.43
2017-07-29T17:45:39.065Z,3.50
2017-07-29T17:50:42.277Z,4.43
2017-07-29T17:55:45.496Z,3.73
2017-07-29T18:00:48.653Z,4.17
2017-07-29T18:05:51.855Z,4.40
2017-07-29T18:10:55.054Z,3.90
2017-07-29T18:15:58.279Z,3.60
2017-07-29T18:21:01.482Z,4.70
2017-07-29T18:26:04.678Z,3.80
2017-07-29T18:31:07.882Z,3.73
2017-07-29T18:36:11.144Z,4.53
2017-07-29T18:41:14.363Z,3.70
2017-07-29T18:46:17.595Z,3.90
2017-07-29T18:51:20.781Z,4.27
2017-07-29T18:56:24.791Z,5.00
2017-07-29T19:01:28.296Z,4.10
2017-07-29T19:06:31.478Z,4.50
2017-07-29T19:11:34.708Z,4.13
2017-07-29T19:16:37.945Z,4.30
2017-07-29T19:21:41.988Z,4.17
2017-07-29T19:26:45.955Z,4.03
2017-07-29T19:31:49.163Z,3.83
2017-07-29T19:36:52.353Z,3.70
2017-07-29T19:41:55.690Z,3.80
2017-07-29T19:46:58.946Z,4.57
2017-07-29T19:52:02.146Z,4.70
2017-07-29T19:57:05.359Z,4.53
2017-07-29T20:02:08.662Z,4.53
2017-07-29T20:07:12.666Z,4.63
2017-07-29T20:12:16.632Z,5.57
2017-07-29T20:17:19.856Z,5.80
2017-07-29T20:22:23.127Z,6.03
2017-07-29T20:27:27.301Z,5.70
2017-07-29T20:32:30.501Z,6.77
2017-07-29T20:37:33.708Z,6.10
2017-07-29T20:42:36.885Z,6.10
2017-07-29T20:47:40.080Z,5.30
2017-07-29T20:52:44.103Z,5.43
2017-07-29T20:57:48.030Z,5.67
2017-07-29T21:02:51.234Z,6.20
2017-07-29T21:07:55.217Z,5.63
2017-07-29T21:12:58.396Z,5.73
2017-07-29T21:18:01.762Z,5.50
2017-07-29T21:23:05.720Z,5.70
2017-07-29T21:28:08.875Z,6.83
2017-07-29T21:33:12.130Z,6.10
2017-07-29T21:38:15.300Z,5.87
2017-07-29T21:43:19.270Z,6.00
2017-07-29T21:48:22.442Z,5.77
2017-07-29T21:53:26.434Z,5.97
2017-07-29T21:58:29.639Z,5.40
2017-07-29T22:03:32.922Z,6.13
2017-07-29T22:08:36.145Z,7.33
2017-07-29T22:13:39.428Z,6.83
2017-07-29T22:18:42.627Z,6.53
2017-07-29T22:23:45.828Z,7.40
2017-07-29T22:28:49.764Z,7.37
2017-07-29T22:33:52.973Z,7.13
2017-07-29T22:38:56.172Z,7.27
2017-07-29T22:43:59.393Z,7.20
2017-07-29T22:49:02.589Z,7.87
2017-07-29T22:54:05.801Z,7.13
2017-07-29T22:59:08.961Z,6.80
2017-07-29T23:04:12.158Z,6.83
2017-07-29T23:09:15.390Z,7.27
2017-07-29T23:14:19.267Z,6.80
2017-07-29T23:19:22.483Z,6.90
2017-07-29T23:24:25.688Z,6.50
2017-07-29T23:29:29.005Z,6.77
2017-07-29T23:34:32.206Z,7.50
2017-07-29T23:39:35.572Z,8.43
2017-07-29T23:44:39.510Z,8.37
2017-07-29T23:49:42.700Z,7.50
2017-07-29T23:54:45.889Z,7.30
2017-07-29T23:59:49.836Z,7.70
